Time;durP1;ratioP1;P1;durP2;ratioP2;P2;SDS_P1;SDS_P2;PMS_P1;PMS_P2;Temp;Humidity;BMP_temperature;BMP_pressure;BME280_temperature;BME280_humidity;BME280_pressure;Samples;Min_cycle;Max_cycle;Signal;HPM_P1;HPM_P2
2022/03/26 00:00:39;;;;;;;52.20;26.60;;;;;;;5.77;52.83;97575.72;2072759;28;20222;-61
2022/03/26 00:01:41;;;;;;;51.00;26.90;;;;;;;5.65;53.61;97569.19;2074014;28;20812;-61
2022/03/26 00:02:44;;;;;;;54.47;28.25;;;;;;;5.57;53.87;97572.91;2074656;28;20193;-61
2022/03/26 00:03:46;;;;;;;55.00;28.10;;;;;;;5.57;53.98;97573.78;2075665;28;20232;-61
2022/03/26 00:04:47;;;;;;;60.05;29.80;;;;;;;5.52;53.92;97567.88;2075369;28;20189;-61
2022/03/26 00:05:49;;;;;;;54.85;27.40;;;;;;;5.51;53.93;97577.44;2077508;28;20233;-61
2022/03/26 00:06:50;;;;;;;55.22;28.38;;;;;;;5.51;54.16;97576.59;2076410;28;20632;-61
2022/03/26 00:07:52;;;;;;;54.08;28.83;;;;;;;5.51;54.37;97574.00;2076231;28;20202;-60
2022/03/26 00:08:54;;;;;;;53.67;28.63;;;;;;;5.48;54.42;97571.50;2076174;28;20200;-60
2022/03/26 00:09:56;;;;;;;56.95;27.80;;;;;;;5.46;54.23;97574.13;2076770;28;20193;-61
2022/03/26 00:10:57;;;;;;;53.75;27.33;;;;;;;5.39;54.64;97570.06;2076669;28;20784;-61
2022/03/26 00:11:59;;;;;;;55.50;29.88;;;;;;;5.36;54.70;97559.75;2074137;28;20263;-61
2022/03/26 00:13:00;;;;;;;61.35;30.40;;;;;;;5.39;54.19;97570.06;2076393;28;20205;-60
2022/03/26 00:14:02;;;;;;;58.53;29.35;;;;;;;5.10;54.86;97574.44;2073618;28;20832;-61
2022/03/26 00:15:08;;;;;;;55.60;28.60;;;;;;;5.02;55.24;97575.53;2077714;28;20718;-61
2022/03/26 00:16:10;;;;;;;59.60;29.70;;;;;;;5.05;55.34;97565.06;2077390;28;20704;-61
2022/03/26 00:17:11;;;;;;;57.03;29.38;;;;;;;5.11;55.23;97570.91;2078486;28;20283;-60
2022/03/26 00:18:15;;;;;;;67.22;31.25;;;;;;;4.98;55.57;97566.16;2077926;28;20208;-60
2022/03/26 00:19:16;;;;;;;59.22;29.08;;;;;;;5.05;55.32;97570.28;2076245;28;20196;-61
2022/03/26 00:20:18;;;;;;;55.47;28.88;;;;;;;5.03;55.43;97559.91;2074876;28;20213;-62
2022/03/26 00:21:20;;;;;;;53.50;28.15;;;;;;;5.22;54.99;97572.34;2076656;28;20204;-61
2022/03/26 00:22:22;;;;;;;60.20;29.40;;;;;;;5.21;55.08;97575.81;2077887;28;20209;-61
2022/03/26 00:23:23;;;;;;;59.75;28.13;;;;;;;5.19;54.99;97568.06;2077094;28;20196;-61
2022/03/26 00:24:25;;;;;;;62.45;30.05;;;;;;;5.10;55.27;97571.81;2078196;28;20213;-60
2022/03/26 00:25:26;;;;;;;57.15;27.85;;;;;;;5.12;55.42;97571.78;2074790;28;20221;-61
2022/03/26 00:26:28;;;;;;;56.65;29.60;;;;;;;5.28;54.88;97567.78;2076851;28;20212;-60
2022/03/26 00:27:30;;;;;;;67.35;28.27;;;;;;;5.16;55.14;97570.78;2076684;28;20545;-61
2022/03/26 00:28:32;;;;;;;51.20;27.63;;;;;;;5.10;55.55;97573.59;2075454;28;20204;-61
2022/03/26 00:29:33;;;;;;;55.40;27.73;;;;;;;4.89;56.14;97570.75;2075372;28;20201;-61
2022/03/26 00:30:35;;;;;;;53.78;26.95;;;;;;;4.99;55.89;97560.06;2075210;28;20194;-61
2022/03/26 00:31:37;;;;;;;49.53;26.50;;;;;;;5.07;55.99;97563.28;2077589;28;20193;-61
2022/03/26 00:32:39;;;;;;;51.65;27.67;;;;;;;4.90;56.10;97572.44;2075262;28;20197;-60
2022/03/26 00:33:42;;;;;;;57.70;26.42;;;;;;;4.93;56.03;97561.13;2077802;28;20205;-60
2022/03/26 00:34:43;;;;;;;54.95;26.92;;;;;;;5.01;56.15;97568.66;2076109;28;20189;-61
2022/03/26 00:35:46;;;;;;;61.03;28.10;;;;;;;4.96;56.08;97571.41;2076389;28;20717;-61
2022/03/26 00:36:48;;;;;;;57.30;27.05;;;;;;;5.01;56.17;97566.06;2077179;28;20628;-61
2022/03/26 00:37:52;;;;;;;52.95;26.52;;;;;;;5.08;55.60;97568.44;2077709;28;20218;-60
2022/03/26 00:38:53;;;;;;;54.28;26.52;;;;;;;5.10;55.41;97570.97;2077062;28;20740;-61
2022/03/26 00:39:55;;;;;;;48.00;26.48;;;;;;;5.08;55.50;97565.00;2079576;28;20216;-61
2022/03/26 00:40:56;;;;;;;59.80;28.02;;;;;;;5.15;55.28;97569.06;2080105;28;20847;-61
2022/03/26 00:41:58;;;;;;;60.90;26.77;;;;;;;5.21;54.70;97568.03;2078126;28;20193;-61
2022/03/26 00:43:00;;;;;;;54.20;27.73;;;;;;;5.18;54.75;97565.56;2079482;28;20198;-61
2022/03/26 00:44:02;;;;;;;55.33;27.45;;;;;;;5.16;54.92;97568.19;2078554;28;20201;-61
2022/03/26 00:45:04;;;;;;;56.22;27.42;;;;;;;5.05;55.60;97576.31;2077851;28;20195;-61
2022/03/26 00:46:05;;;;;;;49.88;26.33;;;;;;;4.98;55.56;97573.94;2076951;28;20233;-61
2022/03/26 00:47:07;;;;;;;47.15;25.10;;;;;;;4.96;55.70;97563.63;2077548;28;20205;-61
2022/03/26 00:48:09;;;;;;;57.13;27.60;;;;;;;5.04;55.36;97566.00;2076823;28;20197;-61
2022/03/26 00:49:15;;;;;;;53.95;26.27;;;;;;;5.04;55.54;97572.03;2077750;28;20197;-61
2022/03/26 00:50:16;;;;;;;54.65;26.63;;;;;;;4.98;55.44;97568.75;2078330;28;20226;-60
2022/03/26 00:51:18;;;;;;;57.38;28.38;;;;;;;4.98;55.65;97571.34;2078283;28;20236;-60
2022/03/26 00:52:20;;;;;;;50.55;24.67;;;;;;;5.02;55.54;97572.94;2075810;28;20201;-60
2022/03/26 00:53:22;;;;;;;47.85;25.88;;;;;;;4.95;55.54;97569.69;2078299;28;20661;-60
2022/03/26 00:54:24;;;;;;;51.72;27.00;;;;;;;5.08;55.25;97572.78;2075783;28;20202;-61
2022/03/26 00:55:26;;;;;;;60.03;27.00;;;;;;;5.09;55.26;97572.72;2076966;28;20204;-61
2022/03/26 00:56:27;;;;;;;58.15;26.48;;;;;;;5.10;55.33;97570.97;2077056;28;20228;-61
2022/03/26 00:57:29;;;;;;;56.90;27.67;;;;;;;5.14;55.00;97570.00;2076230;28;20198;-61
2022/03/26 00:58:30;;;;;;;56.33;26.42;;;;;;;5.14;55.23;97570.00;2078129;28;20197;-61
2022/03/26 00:59:32;;;;;;;52.75;27.90;;;;;;;5.03;55.08;97574.66;2076660;28;20667;-61
2022/03/26 01:00:33;;;;;;;53.55;26.42;;;;;;;4.95;55.46;97567.09;2078181;28;20213;-61
2022/03/26 01:01:35;;;;;;;54.00;26.33;;;;;;;5.04;55.40;97571.19;2076233;28;20194;-61
2022/03/26 01:02:37;;;;;;;58.67;27.35;;;;;;;4.82;55.67;97552.81;2077849;28;20197;-61
2022/03/26 01:03:38;;;;;;;65.15;27.92;;;;;;;4.93;55.81;97566.31;2075796;28;20207;-60
2022/03/26 01:04:40;;;;;;;61.80;27.70;;;;;;;4.97;55.73;97572.25;2077393;28;20240;-61
2022/03/26 01:05:42;;;;;;;55.15;27.20;;;;;;;4.99;55.70;97573.91;2077036;28;20225;-61
2022/03/26 01:06:43;;;;;;;51.85;27.13;;;;;;;5.00;55.87;97569.56;2077949;28;20629;-61
2022/03/26 01:07:46;;;;;;;57.45;27.30;;;;;;;5.11;55.18;97568.31;2079263;28;20653;-60
2022/03/26 01:08:48;;;;;;;54.85;26.85;;;;;;;5.15;55.03;97571.66;2076836;28;20198;-61
2022/03/26 01:09:49;;;;;;;56.88;28.13;;;;;;;5.04;55.26;97569.44;2075382;28;20194;-61
2022/03/26 01:10:51;;;;;;;60.83;27.00;;;;;;;4.93;55.61;97569.75;2077919;28;20225;-61
2022/03/26 01:11:53;;;;;;;55.97;27.05;;;;;;;5.10;55.99;97564.03;2073556;28;20251;-60
2022/03/26 01:12:55;;;;;;;55.20;26.90;;;;;;;4.83;56.23;97563.13;2074670;28;20197;-61
2022/03/26 01:13:56;;;;;;;64.40;26.98;;;;;;;4.77;56.48;97562.50;2077450;28;20198;-60
2022/03/26 01:14:57;;;;;;;53.83;27.73;;;;;;;4.88;56.27;97560.41;2076539;28;20290;-61
2022/03/26 01:15:59;;;;;;;57.42;27.40;;;;;;;4.70;56.16;97551.44;2077614;28;20228;-61
2022/03/26 01:17:01;;;;;;;51.70;29.00;;;;;;;4.78;56.43;97565.00;2075897;28;20196;-61
2022/03/26 01:18:03;;;;;;;50.33;25.00;;;;;;;4.77;56.39;97565.94;2076369;28;20692;-61
2022/03/26 01:19:04;;;;;;;53.95;25.90;;;;;;;4.77;56.30;97572.88;2076011;28;20202;-61
2022/03/26 01:20:08;;;;;;;51.53;27.10;;;;;;;4.77;56.25;97573.72;2077022;28;20207;-61
2022/03/26 01:21:09;;;;;;;59.55;27.17;;;;;;;4.80;55.88;97570.16;2076588;28;20692;-60
2022/03/26 01:22:11;;;;;;;58.35;27.33;;;;;;;4.86;55.36;97568.25;2079176;28;20518;-61
2022/03/26 01:23:13;;;;;;;53.75;26.95;;;;;;;4.88;56.24;97569.06;2078009;28;20205;-61
2022/03/26 01:24:14;;;;;;;54.15;27.23;;;;;;;4.81;56.35;97575.31;2076502;28;20220;-60
2022/03/26 01:25:15;;;;;;;51.70;26.90;;;;;;;4.83;56.44;97563.13;2076842;28;20204;-61
2022/03/26 01:26:19;;;;;;;58.80;26.45;;;;;;;4.82;56.57;97577.03;2076867;28;20228;-60
2022/03/26 01:27:20;;;;;;;51.58;27.38;;;;;;;4.79;56.78;97571.06;2076621;28;20199;-61
2022/03/26 01:28:22;;;;;;;51.35;26.75;;;;;;;4.66;56.93;97575.78;2076446;28;20297;-60
2022/03/26 01:29:24;;;;;;;58.65;27.40;;;;;;;4.47;57.51;97572.84;2075647;28;20205;-61
2022/03/26 01:30:25;;;;;;;57.08;27.95;;;;;;;4.51;57.16;97570.16;2076023;28;20200;-61
2022/03/26 01:31:27;;;;;;;62.67;28.75;;;;;;;4.58;57.16;97575.16;2077997;28;20227;-61
2022/03/26 01:32:28;;;;;;;48.22;25.15;;;;;;;4.56;57.20;97564.81;2077437;28;20224;-61
2022/03/26 01:33:30;;;;;;;51.83;26.20;;;;;;;4.45;57.04;97572.94;2076937;28;20205;-61
2022/03/26 01:34:32;;;;;;;51.25;25.38;;;;;;;4.61;56.79;97572.47;2078463;28;20208;-61
2022/03/26 01:35:33;;;;;;;49.63;26.58;;;;;;;4.65;56.76;97569.75;2075603;28;20228;-61
2022/03/26 01:36:35;;;;;;;53.40;26.17;;;;;;;4.64;56.51;97565.44;2077049;28;20201;-60
2022/03/26 01:37:36;;;;;;;51.72;25.65;;;;;;;4.70;56.56;97569.59;2076999;28;20539;-61
2022/03/26 01:38:38;;;;;;;53.58;28.00;;;;;;;4.64;56.52;97565.44;2077806;28;20207;-61
2022/03/26 01:39:39;;;;;;;55.72;28.85;;;;;;;4.53;56.77;97557.97;2077335;28;20193;-61
2022/03/26 01:40:41;;;;;;;53.03;27.13;;;;;;;4.39;57.32;97567.03;2078939;28;20561;-60
2022/03/26 01:41:43;;;;;;;48.25;25.90;;;;;;;4.44;57.08;97562.59;2075331;28;20216;-61
2022/03/26 01:42:44;;;;;;;60.10;27.70;;;;;;;4.30;57.75;97565.56;2077012;28;20284;-61
2022/03/26 01:43:46;;;;;;;54.05;24.67;;;;;;;4.59;57.12;97559.53;2077280;28;20198;-61
2022/03/26 01:44:48;;;;;;;58.88;27.63;;;;;;;4.56;56.56;97562.22;2076936;28;20201;-61
2022/03/26 01:45:50;;;;;;;53.05;25.45;;;;;;;4.50;56.70;97558.06;2076899;28;20223;-61
2022/03/26 01:46:54;;;;;;;51.65;26.42;;;;;;;4.50;56.57;97560.66;2077284;28;20201;-61
2022/03/26 01:47:57;;;;;;;54.17;27.30;;;;;;;4.56;56.30;97562.22;2075692;28;20190;-61
2022/03/26 01:48:58;;;;;;;53.38;26.23;;;;;;;4.52;56.26;97561.44;2075846;28;20206;-61
2022/03/26 01:49:59;;;;;;;62.10;26.17;;;;;;;4.46;56.40;97564.22;2077713;28;20211;-61
2022/03/26 01:51:14;;;;;;;47.72;25.58;;;;;;;4.60;56.12;97563.81;2075277;28;20225;-61
2022/03/26 01:52:15;;;;;;;54.03;26.13;;;;;;;4.75;55.74;97562.53;2075221;28;20243;-61
2022/03/26 01:53:17;;;;;;;60.42;26.80;;;;;;;4.79;55.26;97558.94;2078155;28;20211;-61
2022/03/26 01:54:19;;;;;;;51.47;26.30;;;;;;;4.77;55.45;97560.75;2073398;28;20207;-61
2022/03/26 01:55:22;;;;;;;55.80;27.10;;;;;;;4.65;55.73;97566.31;2075528;28;20197;-61
2022/03/26 01:56:24;;;;;;;56.42;26.42;;;;;;;4.71;55.85;97559.16;2078317;28;20726;-61
2022/03/26 01:57:28;;;;;;;51.92;27.00;;;;;;;4.70;55.98;97549.69;2075509;28;20204;-60
2022/03/26 01:58:29;;;;;;;51.03;26.40;;;;;;;4.73;56.51;97559.97;2077411;28;20624;-60
2022/03/26 01:59:32;;;;;;;58.13;26.63;;;;;;;4.60;56.92;97556.03;2075559;28;20575;-61
2022/03/26 02:00:35;;;;;;;56.03;27.25;;;;;;;4.60;57.34;97563.81;2076745;28;20209;-61
2022/03/26 02:01:37;;;;;;;55.45;26.35;;;;;;;4.52;57.62;97553.66;2075310;28;20288;-61
2022/03/26 02:02:43;;;;;;;57.03;27.75;;;;;;;4.32;57.82;97556.00;2078388;28;20194;-60
2022/03/26 02:03:45;;;;;;;57.08;27.13;;;;;;;4.27;58.11;97555.28;2075526;28;20640;-60
2022/03/26 02:04:47;;;;;;;57.08;27.75;;;;;;;4.26;58.00;97553.59;2076332;28;20205;-61
2022/03/26 02:05:48;;;;;;;56.75;26.40;;;;;;;4.24;58.37;97558.81;2077790;28;20875;-61
2022/03/26 02:06:50;;;;;;;59.97;27.27;;;;;;;4.16;58.53;97560.78;2077807;28;20206;-60
2022/03/26 02:07:51;;;;;;;61.30;26.65;;;;;;;4.14;58.46;97559.97;2077675;28;20189;-61
2022/03/26 02:08:53;;;;;;;52.38;28.08;;;;;;;4.17;58.46;97565.06;2076949;28;20213;-61
2022/03/26 02:09:54;;;;;;;50.40;27.20;;;;;;;4.09;58.48;97567.00;2078657;28;20580;-61
2022/03/26 02:10:56;;;;;;;52.85;25.60;;;;;;;4.14;58.50;97562.56;2075944;28;20213;-61
2022/03/26 02:11:57;;;;;;;53.85;27.23;;;;;;;4.12;58.48;97564.34;2074255;28;20201;-61
2022/03/26 02:12:59;;;;;;;58.95;28.10;;;;;;;4.08;59.03;97561.00;2076425;28;20225;-61
2022/03/26 02:14:02;;;;;;;55.85;27.25;;;;;;;4.05;58.84;97562.81;2078279;28;20296;-61
2022/03/26 02:15:06;;;;;;;56.58;25.90;;;;;;;4.00;59.09;97559.47;2077886;28;20230;-60
2022/03/26 02:16:08;;;;;;;54.55;26.88;;;;;;;3.99;59.33;97560.38;2075190;28;20225;-61
2022/03/26 02:17:10;;;;;;;56.45;28.30;;;;;;;3.97;59.35;97558.66;2074254;28;20629;-61
2022/03/26 02:18:12;;;;;;;52.63;28.65;;;;;;;3.99;59.52;97557.78;2077512;28;20715;-60
2022/03/26 02:19:15;;;;;;;50.65;26.92;;;;;;;3.95;59.76;97549.25;2078327;28;20239;-61
2022/03/26 02:20:17;;;;;;;53.40;27.73;;;;;;;3.82;59.97;97559.09;2077758;28;20193;-61
2022/03/26 02:21:20;;;;;;;61.92;28.98;;;;;;;3.87;59.80;97559.81;2076293;28;20252;-61
2022/03/26 02:22:23;;;;;;;57.47;28.67;;;;;;;3.83;59.87;97554.78;2076984;28;20202;-61
2022/03/26 02:23:24;;;;;;;51.03;26.95;;;;;;;3.77;59.68;97558.38;2077766;28;20680;-61
2022/03/26 02:24:26;;;;;;;53.88;25.92;;;;;;;3.90;59.42;97559.75;2076790;28;20555;-61
2022/03/26 02:25:28;;;;;;;57.95;28.73;;;;;;;3.76;59.78;97548.88;2077797;28;20197;-61
2022/03/26 02:26:30;;;;;;;56.90;28.13;;;;;;;3.74;59.97;97556.72;2076380;28;20208;-61
2022/03/26 02:27:32;;;;;;;52.75;27.60;;;;;;;3.68;60.12;97543.91;2076593;28;20206;-61
2022/03/26 02:28:34;;;;;;;56.03;26.35;;;;;;;3.75;59.66;97552.38;2076827;28;20204;-61
2022/03/26 02:29:35;;;;;;;53.15;26.13;;;;;;;3.83;60.14;97554.78;2077590;28;20797;-61
2022/03/26 02:30:37;;;;;;;59.65;28.13;;;;;;;3.79;60.10;97550.56;2077017;28;20606;-61
2022/03/26 02:31:39;;;;;;;64.07;28.83;;;;;;;3.79;60.13;97553.16;2077298;28;20193;-61
2022/03/26 02:32:40;;;;;;;54.53;27.17;;;;;;;3.84;60.01;97552.16;2075578;28;20208;-61
2022/03/26 02:33:42;;;;;;;56.53;26.67;;;;;;;3.83;59.99;97552.19;2078064;28;20202;-61
2022/03/26 02:34:44;;;;;;;53.80;27.90;;;;;;;3.70;60.36;97552.47;2078846;28;20197;-61
2022/03/26 02:36:02;;;;;;;56.72;26.90;;;;;;;3.69;60.60;97543.03;2076227;28;20231;-61
2022/03/26 02:37:04;;;;;;;63.10;26.65;;;;;;;3.74;59.96;97550.66;2078631;28;20196;-61
2022/03/26 02:38:05;;;;;;;54.13;28.05;;;;;;;3.73;60.22;97547.22;2077721;28;20247;-60
2022/03/26 02:39:07;;;;;;;52.58;26.25;;;;;;;3.73;60.17;97552.41;2077879;28;20209;-61
2022/03/26 02:40:09;;;;;;;50.55;27.75;;;;;;;3.66;60.18;97548.28;2077761;28;20201;-61
2022/03/26 02:41:10;;;;;;;57.80;28.33;;;;;;;3.60;60.63;97545.84;2076766;28;20233;-61
2022/03/26 02:42:13;;;;;;;61.00;27.52;;;;;;;3.54;60.57;97535.66;2076835;28;20198;-61
2022/03/26 02:43:14;;;;;;;57.22;26.85;;;;;;;3.77;59.82;97542.81;2076303;28;20205;-61
2022/03/26 02:44:16;;;;;;;53.65;27.02;;;;;;;3.71;59.89;97545.59;2078531;28;20201;-61
2022/03/26 02:45:18;;;;;;;52.60;27.83;;;;;;;3.78;60.03;97548.84;2075219;28;20201;-61
2022/03/26 02:46:19;;;;;;;58.35;27.85;;;;;;;3.81;59.90;97539.25;2075145;28;20868;-61
2022/03/26 02:47:21;;;;;;;58.40;29.05;;;;;;;3.84;59.92;97543.50;2075434;28;20284;-61
2022/03/26 02:48:23;;;;;;;50.95;25.83;;;;;;;3.87;59.76;97546.03;2078100;28;20201;-61
2022/03/26 02:49:24;;;;;;;55.90;27.35;;;;;;;3.86;59.31;97541.72;2076592;28;20201;-61
2022/03/26 02:50:26;;;;;;;70.22;27.30;;;;;;;3.83;59.53;97537.47;2075592;28;20208;-61
2022/03/26 02:51:27;;;;;;;54.63;25.85;;;;;;;3.87;59.54;97541.69;2077646;28;20202;-61
2022/03/26 02:52:29;;;;;;;65.43;28.70;;;;;;;3.88;59.71;97542.53;2076894;28;20602;-61
2022/03/26 02:53:30;;;;;;;48.95;25.75;;;;;;;3.84;59.68;97546.09;2079529;28;20208;-61
2022/03/26 02:54:31;;;;;;;55.05;26.10;;;;;;;3.88;59.65;97539.94;2074990;28;20197;-61
2022/03/26 02:55:34;;;;;;;60.17;28.10;;;;;;;3.84;59.70;97540.91;2075126;28;20201;-61
2022/03/26 02:56:36;;;;;;;54.55;26.70;;;;;;;3.71;60.03;97546.44;2075136;28;20224;-61
2022/03/26 02:57:37;;;;;;;55.78;28.20;;;;;;;3.68;60.06;97549.09;2077200;28;20206;-61
2022/03/26 02:58:39;;;;;;;50.70;26.83;;;;;;;3.67;60.11;97539.63;2075563;28;20566;-60
2022/03/26 02:59:43;;;;;;;52.30;27.02;;;;;;;3.68;60.01;97549.09;2075686;28;20197;-61
2022/03/26 03:00:45;;;;;;;54.72;27.42;;;;;;;3.60;60.55;97542.41;2075443;28;20296;-61
2022/03/26 03:01:48;;;;;;;53.30;27.13;;;;;;;3.59;60.34;97533.81;2078943;28;20585;-64
2022/03/26 03:02:50;;;;;;;55.17;25.90;;;;;;;3.63;60.57;97539.75;2074612;28;20872;-61
2022/03/26 03:03:51;;;;;;;57.22;28.90;;;;;;;3.48;60.72;97543.56;2077558;28;20189;-61
2022/03/26 03:04:53;;;;;;;47.17;25.70;;;;;;;3.55;60.52;97547.72;2077853;28;20208;-61
2022/03/26 03:05:54;;;;;;;52.00;26.40;;;;;;;3.61;60.48;97542.38;2076421;28;20217;-61
2022/03/26 03:06:56;;;;;;;54.63;26.38;;;;;;;3.56;60.46;97547.66;2074768;28;20202;-61
2022/03/26 03:07:57;;;;;;;63.88;26.98;;;;;;;3.62;60.30;97546.66;2074875;28;20649;-61
2022/03/26 03:08:59;;;;;;;52.95;25.65;;;;;;;3.59;60.42;97540.69;2078333;28;20283;-61
2022/03/26 03:10:00;;;;;;;52.90;26.02;;;;;;;3.63;60.31;97548.38;2079268;28;20197;-61
2022/03/26 03:11:02;;;;;;;59.90;27.35;;;;;;;3.55;60.55;97550.31;2074215;28;20227;-61
2022/03/26 03:12:04;;;;;;;52.33;26.83;;;;;;;3.57;60.44;97545.94;2076055;28;20685;-61
2022/03/26 03:13:05;;;;;;;61.22;28.52;;;;;;;3.61;60.45;97542.38;2074956;28;20197;-61
2022/03/26 03:14:06;;;;;;;55.10;28.30;;;;;;;3.53;60.57;97537.41;2078512;28;20545;-60
2022/03/26 03:15:10;;;;;;;54.08;28.52;;;;;;;3.64;60.58;97550.06;2077546;28;20240;-60
2022/03/26 03:16:11;;;;;;;54.78;26.63;;;;;;;3.69;60.08;97548.22;2075033;28;20766;-61
2022/03/26 03:17:13;;;;;;;51.08;25.95;;;;;;;3.65;60.70;97538.81;2076446;28;20216;-61
2022/03/26 03:18:15;;;;;;;58.92;27.63;;;;;;;3.69;60.31;97544.78;2076883;28;20225;-61
2022/03/26 03:19:16;;;;;;;62.63;27.77;;;;;;;3.63;60.61;97544.94;2078314;28;20202;-61
2022/03/26 03:20:19;;;;;;;48.47;26.65;;;;;;;3.70;60.71;97538.69;2076625;28;20204;-62
2022/03/26 03:21:21;;;;;;;58.72;26.70;;;;;;;3.70;60.32;97543.88;2076534;28;20701;-61
2022/03/26 03:22:22;;;;;;;52.00;25.30;;;;;;;3.57;61.06;97538.16;2076444;28;20205;-61
2022/03/26 03:23:24;;;;;;;49.00;26.17;;;;;;;3.57;60.94;97543.34;2075718;28;20211;-61
2022/03/26 03:24:25;;;;;;;50.28;26.60;;;;;;;3.48;61.24;97541.00;2077864;28;20207;-61
2022/03/26 03:25:29;;;;;;;57.83;27.00;;;;;;;3.45;61.27;97538.47;2075534;28;20333;-62
2022/03/26 03:26:31;;;;;;;48.72;25.15;;;;;;;3.35;61.40;97537.84;2075963;28;20201;-61
2022/03/26 03:27:32;;;;;;;53.00;28.08;;;;;;;3.42;61.25;97534.22;2077456;28;20193;-61
2022/03/26 03:28:34;;;;;;;53.88;26.63;;;;;;;3.55;60.67;97534.78;2075411;28;20197;-61
2022/03/26 03:29:35;;;;;;;57.10;27.30;;;;;;;3.43;61.06;97535.94;2079223;28;20201;-61
2022/03/26 03:30:37;;;;;;;45.35;25.10;;;;;;;3.35;60.88;97528.34;2074074;28;20198;-61
2022/03/26 03:31:44;;;;;;;54.60;27.17;;;;;;;3.42;60.98;97530.78;2073433;28;20809;-61
2022/03/26 03:32:45;;;;;;;54.25;26.23;;;;;;;3.36;61.21;97534.38;2075042;28;20225;-61
2022/03/26 03:33:47;;;;;;;49.20;26.67;;;;;;;3.34;61.31;97538.75;2075080;28;20194;-61
2022/03/26 03:34:48;;;;;;;58.08;27.63;;;;;;;3.32;61.46;97536.19;2075469;28;20790;-61
2022/03/26 03:35:50;;;;;;;55.78;27.23;;;;;;;3.24;61.49;97530.34;2075901;28;20224;-61
2022/03/26 03:36:52;;;;;;;53.03;27.88;;;;;;;3.23;61.69;97532.97;2077802;28;20197;-61
2022/03/26 03:37:53;;;;;;;55.35;26.15;;;;;;;3.23;62.47;97539.00;2077106;28;20209;-61
2022/03/26 03:38:55;;;;;;;50.58;24.45;;;;;;;3.25;62.00;97531.19;2076745;28;20538;-61
2022/03/26 03:39:56;;;;;;;58.78;27.52;;;;;;;3.16;62.06;97527.13;2076244;28;20197;-61
2022/03/26 03:40:59;;;;;;;58.28;27.63;;;;;;;3.21;61.85;97534.75;2078586;28;20225;-61
2022/03/26 03:42:01;;;;;;;54.30;28.15;;;;;;;3.21;61.84;97530.41;2073199;28;20209;-61
2022/03/26 03:43:02;;;;;;;48.45;25.48;;;;;;;3.15;62.07;97534.00;2074888;28;20208;-61
2022/03/26 03:44:07;;;;;;;54.90;26.55;;;;;;;3.19;61.75;97524.44;2074654;28;20201;-62
2022/03/26 03:45:09;;;;;;;53.33;26.48;;;;;;;3.33;61.35;97527.56;2075408;28;20205;-61
2022/03/26 03:46:11;;;;;;;59.92;28.52;;;;;;;3.26;61.46;97526.00;2075260;28;20249;-61
2022/03/26 03:47:12;;;;;;;54.67;26.85;;;;;;;3.27;61.48;97529.41;2075984;28;20223;-61
2022/03/26 03:48:14;;;;;;;56.00;26.85;;;;;;;3.27;61.60;97527.69;2076383;28;20202;-62
2022/03/26 03:49:16;;;;;;;53.58;25.58;;;;;;;3.21;62.05;97533.00;2076894;28;20220;-61
2022/03/26 03:50:18;;;;;;;52.90;26.65;;;;;;;3.25;61.89;97532.03;2075020;28;20209;-61
2022/03/26 03:51:20;;;;;;;64.13;27.80;;;;;;;3.22;62.45;97529.53;2075196;28;20606;-61
2022/03/26 03:52:21;;;;;;;57.15;27.08;;;;;;;3.17;62.28;97529.66;2074319;28;20193;-61
2022/03/26 03:53:23;;;;;;;51.13;26.13;;;;;;;3.13;62.19;97528.00;2077746;28;20541;-61
2022/03/26 03:54:25;;;;;;;51.22;26.10;;;;;;;3.18;62.23;97525.34;2077996;28;20215;-61
2022/03/26 03:55:27;;;;;;;57.50;26.08;;;;;;;3.12;62.15;97530.66;2075757;28;20710;-61
2022/03/26 03:56:29;;;;;;;50.35;25.52;;;;;;;3.10;62.44;97527.25;2075968;28;20204;-61
2022/03/26 03:57:30;;;;;;;49.47;25.75;;;;;;;3.05;62.43;97527.34;2076855;28;20205;-61
2022/03/26 03:58:32;;;;;;;52.97;27.48;;;;;;;3.01;62.30;97532.66;2076379;28;20212;-61
2022/03/26 03:59:40;;;;;;;48.95;27.27;;;;;;;2.96;62.80;97530.19;2073974;28;20200;-61
2022/03/26 04:00:42;;;;;;;50.53;25.75;;;;;;;2.90;62.83;97533.75;2074613;28;20228;-61
2022/03/26 04:01:44;;;;;;;54.45;26.83;;;;;;;2.95;62.79;97534.50;2074500;28;20194;-61
2022/03/26 04:02:46;;;;;;;56.65;28.02;;;;;;;2.94;62.82;97537.09;2076197;28;20232;-61
2022/03/26 04:03:48;;;;;;;50.47;27.52;;;;;;;2.94;62.72;97537.97;2076119;28;20243;-61
2022/03/26 04:04:49;;;;;;;58.92;27.42;;;;;;;3.06;62.58;97529.06;2076319;28;20197;-61
2022/03/26 04:05:51;;;;;;;55.30;27.95;;;;;;;3.03;62.36;97530.88;2073641;28;21079;-62
2022/03/26 04:06:52;;;;;;;46.38;24.77;;;;;;;3.00;62.48;97537.00;2073450;28;20205;-61
2022/03/26 04:07:54;;;;;;;54.97;27.38;;;;;;;2.91;62.79;97532.88;2072804;28;20542;-60
2022/03/26 04:08:55;;;;;;;52.38;26.13;;;;;;;2.89;63.06;97537.22;2072939;28;20194;-61
2022/03/26 04:09:56;;;;;;;60.65;28.95;;;;;;;2.80;63.23;97529.66;2078707;28;20189;-61
2022/03/26 04:10:58;;;;;;;57.92;26.63;;;;;;;2.87;63.37;97531.22;2076386;28;20239;-61
2022/03/26 04:12:00;;;;;;;50.55;26.15;;;;;;;2.95;63.04;97529.31;2080118;28;20243;-61
2022/03/26 04:13:02;;;;;;;46.17;24.52;;;;;;;3.03;62.88;97526.53;2080155;28;20275;-61
2022/03/26 04:14:04;;;;;;;64.45;26.70;;;;;;;2.97;62.71;97526.69;2079417;28;20217;-61
2022/03/26 04:15:07;;;;;;;50.55;26.08;;;;;;;2.69;63.31;97523.91;2079342;28;20244;-61
2022/03/26 04:16:09;;;;;;;47.33;25.42;;;;;;;2.70;63.75;97523.84;2076509;28;20232;-61
2022/03/26 04:17:12;;;;;;;53.45;25.85;;;;;;;2.65;64.40;97528.28;2078684;28;20198;-61
2022/03/26 04:18:13;;;;;;;51.67;25.73;;;;;;;2.60;64.12;97527.53;2077635;28;20205;-62
2022/03/26 04:19:15;;;;;;;46.65;23.58;;;;;;;2.64;63.93;97523.16;2077809;28;20233;-61
2022/03/26 04:20:16;;;;;;;49.20;25.35;;;;;;;2.61;63.93;97523.19;2077629;28;20219;-61
2022/03/26 04:21:18;;;;;;;53.22;25.90;;;;;;;2.66;63.82;97524.81;2077763;28;20225;-61
2022/03/26 04:22:19;;;;;;;56.08;26.52;;;;;;;2.66;64.06;97521.38;2076201;28;20214;-61
2022/03/26 04:23:21;;;;;;;58.83;26.90;;;;;;;2.64;64.21;97523.16;2079226;28;20308;-61
2022/03/26 04:24:23;;;;;;;53.30;26.27;;;;;;;2.60;63.70;97516.34;2078255;28;20655;-61
2022/03/26 04:25:25;;;;;;;65.28;27.30;;;;;;;2.65;63.73;97523.13;2077423;28;20218;-61
2022/03/26 04:26:27;;;;;;;52.65;26.42;;;;;;;2.74;63.52;97535.84;2080272;28;20198;-61
2022/03/26 04:27:28;;;;;;;64.10;29.17;;;;;;;2.78;63.21;97528.84;2079497;28;20193;-62
2022/03/26 04:28:30;;;;;;;52.05;27.10;;;;;;;2.84;63.38;97526.13;2075607;28;20205;-61
2022/03/26 04:29:32;;;;;;;54.08;25.40;;;;;;;2.81;62.99;97527.94;2077532;28;20208;-61
2022/03/26 04:30:33;;;;;;;50.42;26.23;;;;;;;2.83;63.15;97527.03;2076131;28;20193;-61
2022/03/26 04:31:34;;;;;;;54.40;25.40;;;;;;;2.86;62.99;97534.72;2078305;28;20777;-62
2022/03/26 04:32:36;;;;;;;48.75;25.23;;;;;;;2.82;63.61;97537.41;2079087;28;20669;-62
2022/03/26 04:33:37;;;;;;;50.53;26.60;;;;;;;2.86;63.21;97536.44;2076063;28;20209;-61
2022/03/26 04:34:39;;;;;;;47.42;23.45;;;;;;;2.66;63.53;97536.91;2078131;28;20194;-62
2022/03/26 04:35:41;;;;;;;60.35;27.02;;;;;;;2.54;64.02;97543.19;2077701;28;20220;-61
2022/03/26 04:36:42;;;;;;;48.33;24.80;;;;;;;2.52;64.25;97539.78;2075689;28;20186;-62
2022/03/26 04:37:44;;;;;;;48.88;25.90;;;;;;;2.48;64.10;97539.00;2076167;28;20197;-61
2022/03/26 04:38:45;;;;;;;52.05;26.73;;;;;;;2.44;64.75;97534.78;2077910;28;20197;-61
2022/03/26 04:39:46;;;;;;;50.40;26.00;;;;;;;2.48;64.39;97539.00;2078816;28;20204;-61
2022/03/26 04:40:50;;;;;;;48.47;25.15;;;;;;;2.46;64.05;97539.94;2075828;28;20240;-62
2022/03/26 04:41:51;;;;;;;47.97;24.67;;;;;;;2.44;64.45;97531.34;2076785;28;20244;-61
2022/03/26 04:42:53;;;;;;;49.55;27.20;;;;;;;2.44;64.42;97529.59;2076645;28;20213;-61
2022/03/26 04:43:54;;;;;;;48.97;25.20;;;;;;;2.47;64.32;97531.25;2077523;28;20196;-62
2022/03/26 04:44:56;;;;;;;53.65;26.85;;;;;;;2.53;63.77;97539.75;2078635;28;20220;-62
2022/03/26 04:45:57;;;;;;;53.60;26.17;;;;;;;2.65;63.75;97530.03;2075501;28;20908;-62
2022/03/26 04:46:59;;;;;;;51.97;25.85;;;;;;;2.54;64.26;97525.94;2078419;28;20229;-62
2022/03/26 04:48:00;;;;;;;52.25;26.33;;;;;;;2.50;64.39;97531.22;2075720;28;20202;-61